Time;durP1;ratioP1;P1;durP2;ratioP2;P2;SDS_P1;SDS_P2;PMS_P1;PMS_P2;Temp;Humidity;BMP_temperature;BMP_pressure;BME280_temperature;BME280_humidity;BME280_pressure;Samples;Min_cycle;Max_cycle;Signal;HPM_P1;HPM_P2
2023/03/04 00:01:00;;;;;;;19.95;2.72;;;5.10;99.90;;;;;;5016080;28;20041;-80
2023/03/04 00:03:25;;;;;;;16.92;2.83;;;5.20;99.90;;;;;;5005180;28;20061;-79
2023/03/04 00:05:51;;;;;;;13.32;2.60;;;5.10;99.90;;;;;;5005344;28;20255;-79
2023/03/04 00:08:17;;;;;;;16.02;3.15;;;5.10;99.90;;;;;;5003484;28;20101;-80
2023/03/04 00:10:42;;;;;;;11.18;3.33;;;5.20;99.90;;;;;;5020917;28;20041;-80
2023/03/04 00:13:09;;;;;;;13.85;2.83;;;5.10;99.90;;;;;;4992932;28;20085;-80
2023/03/04 00:15:34;;;;;;;9.98;2.50;;;5.10;99.90;;;;;;4987294;28;20042;-80
2023/03/04 00:18:00;;;;;;;12.32;2.30;;;5.30;99.90;;;;;;4984626;28;20041;-79
2023/03/04 00:20:26;;;;;;;11.07;2.55;;;5.10;99.90;;;;;;4993982;28;20073;-79
2023/03/04 00:22:52;;;;;;;15.60;2.33;;;5.10;99.90;;;;;;4988404;28;20053;-79
2023/03/04 00:25:17;;;;;;;18.25;3.75;;;5.10;99.90;;;;;;4987461;28;20050;-79
2023/03/04 00:27:43;;;;;;;14.40;3.63;;;5.00;99.90;;;;;;5011924;28;20050;-79
2023/03/04 00:30:09;;;;;;;15.80;2.80;;;5.10;99.90;;;;;;4993845;28;20038;-79
2023/03/04 00:32:35;;;;;;;9.20;2.25;;;5.10;99.90;;;;;;4989946;28;20073;-79
2023/03/04 00:35:01;;;;;;;18.52;3.72;;;5.10;99.90;;;;;;5018684;28;20073;-79
2023/03/04 00:37:26;;;;;;;10.77;2.40;;;5.10;99.90;;;;;;4985278;28;20034;-79
2023/03/04 00:39:52;;;;;;;9.50;2.13;;;5.10;99.90;;;;;;4977119;28;20046;-79
2023/03/04 00:42:18;;;;;;;7.50;2.25;;;5.20;99.90;;;;;;4987849;28;20112;-79
2023/03/04 00:44:43;;;;;;;9.85;2.30;;;5.10;99.90;;;;;;4974567;28;20069;-79
2023/03/04 00:47:09;;;;;;;17.17;2.97;;;5.10;99.90;;;;;;4989956;28;20049;-79
2023/03/04 00:49:36;;;;;;;10.23;2.70;;;5.10;99.90;;;;;;5004105;28;20052;-79
2023/03/04 00:52:02;;;;;;;11.13;2.22;;;5.10;99.90;;;;;;4998253;28;20109;-79
2023/03/04 00:54:28;;;;;;;12.98;2.30;;;5.10;99.90;;;;;;4995908;28;20128;-79
2023/03/04 00:56:53;;;;;;;13.45;2.65;;;5.10;99.90;;;;;;4981358;28;20041;-79
2023/03/04 00:59:19;;;;;;;19.20;2.65;;;5.10;99.90;;;;;;5006970;28;20037;-79
2023/03/04 01:01:45;;;;;;;12.35;2.67;;;5.10;99.90;;;;;;4983775;28;20038;-79
2023/03/04 01:04:10;;;;;;;11.82;2.30;;;5.10;99.90;;;;;;4995156;28;20087;-79
2023/03/04 01:06:36;;;;;;;9.85;2.42;;;5.00;99.90;;;;;;4999693;28;20041;-79
2023/03/04 01:09:02;;;;;;;9.52;2.53;;;5.00;99.90;;;;;;4989181;28;20292;-79
2023/03/04 01:11:27;;;;;;;11.63;2.50;;;5.00;99.90;;;;;;5023573;28;20712;-79
2023/03/04 01:13:53;;;;;;;13.80;2.60;;;5.00;99.90;;;;;;4996414;28;20125;-79
2023/03/04 01:16:19;;;;;;;13.95;2.88;;;5.00;99.90;;;;;;4996376;28;20042;-79
2023/03/04 01:18:46;;;;;;;8.20;2.33;;;5.00;99.90;;;;;;4992077;28;20483;-79
2023/03/04 01:21:12;;;;;;;10.68;2.70;;;5.00;99.90;;;;;;4996505;28;20046;-79
2023/03/04 01:23:37;;;;;;;14.77;3.33;;;5.00;99.90;;;;;;5006799;28;20047;-79
2023/03/04 01:26:03;;;;;;;9.60;2.50;;;5.00;99.90;;;;;;5004312;28;20077;-79
2023/03/04 01:28:29;;;;;;;9.88;1.77;;;5.00;99.90;;;;;;5023984;28;20049;-79
2023/03/04 01:30:55;;;;;;;7.43;2.22;;;5.00;99.90;;;;;;4981676;28;20045;-79
2023/03/04 01:33:20;;;;;;;12.93;2.65;;;5.20;99.90;;;;;;4982388;28;20040;-79
2023/03/04 01:35:46;;;;;;;10.43;1.92;;;5.00;99.90;;;;;;4990056;28;20044;-79
2023/03/04 01:38:12;;;;;;;8.93;2.40;;;5.00;99.90;;;;;;5005940;28;20517;-79
2023/03/04 01:40:38;;;;;;;20.00;3.58;;;5.00;99.90;;;;;;5012985;28;20040;-79
2023/03/04 01:43:05;;;;;;;11.27;3.08;;;5.00;99.90;;;;;;5010947;28;20069;-79
2023/03/04 01:45:34;;;;;;;9.57;2.20;;;5.00;99.90;;;;;;5005301;28;20050;-79
2023/03/04 01:48:00;;;;;;;18.20;2.33;;;5.00;99.90;;;;;;4999025;28;20046;-79
2023/03/04 01:50:34;;;;;;;8.30;2.40;;;5.00;99.90;;;;;;4989722;28;20496;-79
2023/03/04 01:53:02;;;;;;;9.55;2.30;;;5.00;99.90;;;;;;5004114;28;20081;-79
2023/03/04 01:55:29;;;;;;;11.18;2.33;;;5.00;99.90;;;;;;5012218;28;20038;-79
2023/03/04 01:57:56;;;;;;;6.85;2.42;;;5.00;99.90;;;;;;4991988;28;20076;-79
2023/03/04 02:00:24;;;;;;;10.25;2.70;;;5.00;99.90;;;;;;5009808;28;20120;-78
2023/03/04 02:02:54;;;;;;;8.55;1.90;;;5.00;99.90;;;;;;5007062;28;20048;-79
2023/03/04 02:05:21;;;;;;;14.05;2.95;;;5.00;99.90;;;;;;4995944;28;20046;-79
2023/03/04 02:07:47;;;;;;;10.57;2.20;;;5.00;99.90;;;;;;4991247;28;20039;-79
2023/03/04 02:10:13;;;;;;;10.88;2.65;;;5.00;99.90;;;;;;5007591;28;20093;-79
2023/03/04 02:12:39;;;;;;;11.95;2.85;;;4.90;99.90;;;;;;4995421;28;20479;-79
2023/03/04 02:15:06;;;;;;;9.07;2.10;;;4.90;99.90;;;;;;4997529;28;20033;-79
2023/03/04 02:17:32;;;;;;;9.80;2.33;;;5.00;99.90;;;;;;5007428;28;20042;-79
2023/03/04 02:20:21;;;;;;;9.13;2.33;;;5.00;99.90;;;;;;4982954;28;20385;-79
2023/03/04 02:23:10;;;;;;;11.35;2.33;;;5.00;99.90;;;;;;5006054;28;20038;-79
2023/03/04 02:25:46;;;;;;;9.18;2.38;;;5.00;99.90;;;;;;5007454;28;20129;-79
2023/03/04 02:28:12;;;;;;;15.70;3.30;;;5.00;99.90;;;;;;4998116;28;20088;-79
2023/03/04 02:30:38;;;;;;;14.98;2.50;;;5.00;99.90;;;;;;4989393;28;20037;-79
2023/03/04 02:33:04;;;;;;;11.30;2.38;;;5.10;99.90;;;;;;4974541;28;20100;-79
2023/03/04 02:35:29;;;;;;;14.15;2.85;;;4.90;99.90;;;;;;4983232;28;20357;-79
2023/03/04 02:37:55;;;;;;;8.95;2.60;;;4.90;99.90;;;;;;4971727;28;20100;-79
2023/03/04 02:40:28;;;;;;;9.32;2.25;;;4.90;99.90;;;;;;4976060;28;20041;-79
2023/03/04 02:42:53;;;;;;;6.40;2.30;;;4.90;99.90;;;;;;5004604;28;20563;-79
2023/03/04 02:45:48;;;;;;;13.48;2.50;;;4.90;99.90;;;;;;4988138;28;20182;-79
2023/03/04 02:48:16;;;;;;;9.40;2.40;;;4.90;99.90;;;;;;5010812;28;20081;-79
2023/03/04 02:50:49;;;;;;;13.32;2.67;;;4.90;99.90;;;;;;5017250;28;20126;-78
2023/03/04 02:53:17;;;;;;;10.55;2.30;;;4.90;99.90;;;;;;5013892;28;20112;-78
2023/03/04 02:55:43;;;;;;;10.65;2.67;;;4.90;99.90;;;;;;5004502;28;20069;-78
2023/03/04 02:58:10;;;;;;;17.55;3.15;;;4.90;99.90;;;;;;4991272;28;20377;-79
2023/03/04 03:00:36;;;;;;;6.60;2.20;;;5.10;99.90;;;;;;5006451;28;20515;-79
2023/03/04 03:03:02;;;;;;;7.93;2.45;;;4.90;99.90;;;;;;5005888;28;20053;-79
2023/03/04 03:05:31;;;;;;;9.05;2.47;;;4.80;99.90;;;;;;5001361;28;20057;-79
2023/03/04 03:07:56;;;;;;;8.77;2.20;;;4.80;99.90;;;;;;5017668;28;20053;-79
2023/03/04 03:10:23;;;;;;;5.20;1.90;;;4.80;99.90;;;;;;4987077;28;20208;-79
2023/03/04 03:12:48;;;;;;;9.68;2.85;;;4.80;99.90;;;;;;5001921;28;20041;-79
2023/03/04 03:15:14;;;;;;;8.00;2.15;;;4.80;99.90;;;;;;4988242;28;20517;-79
2023/03/04 03:17:40;;;;;;;8.15;2.38;;;4.70;99.90;;;;;;4985384;28;20034;-79
2023/03/04 03:20:07;;;;;;;11.52;2.58;;;4.70;99.90;;;;;;5001079;28;20125;-79
2023/03/04 03:22:33;;;;;;;6.15;2.50;;;4.70;99.90;;;;;;5001295;28;20463;-79
2023/03/04 03:24:58;;;;;;;14.02;2.92;;;4.70;99.90;;;;;;4990124;28;20121;-79
2023/03/04 03:27:24;;;;;;;15.10;2.97;;;4.70;99.90;;;;;;4984290;28;20538;-79
2023/03/04 03:29:50;;;;;;;9.77;2.08;;;4.70;99.90;;;;;;5005628;28;20037;-79
2023/03/04 03:32:16;;;;;;;14.45;2.53;;;4.70;99.90;;;;;;4983986;28;20585;-79
2023/03/04 03:34:41;;;;;;;14.25;2.85;;;4.70;99.90;;;;;;4987710;28;20069;-79
2023/03/04 03:37:07;;;;;;;10.43;2.47;;;4.70;99.90;;;;;;4969695;28;20045;-79
2023/03/04 03:39:33;;;;;;;13.05;2.63;;;4.70;99.90;;;;;;4986357;28;20038;-79
2023/03/04 03:41:58;;;;;;;12.10;2.75;;;4.70;99.90;;;;;;4968996;28;20376;-79
2023/03/04 03:44:24;;;;;;;11.43;2.47;;;4.60;99.90;;;;;;4974395;28;20053;-79
2023/03/04 03:46:50;;;;;;;9.32;2.50;;;4.70;99.90;;;;;;4984019;28;20046;-79
2023/03/04 03:49:16;;;;;;;10.75;2.33;;;4.70;99.90;;;;;;5000762;28;20160;-79
2023/03/04 03:51:42;;;;;;;13.65;2.83;;;4.70;99.90;;;;;;4997071;28;20049;-79
2023/03/04 03:54:08;;;;;;;14.95;2.25;;;4.70;99.90;;;;;;5012587;28;20043;-79
2023/03/04 03:56:34;;;;;;;11.90;2.30;;;4.70;99.90;;;;;;4992869;28;20038;-79
2023/03/04 03:59:00;;;;;;;6.95;2.45;;;4.70;99.90;;;;;;4993181;28;20049;-79
2023/03/04 04:01:25;;;;;;;5.65;2.00;;;4.90;99.90;;;;;;5008011;28;20037;-79
2023/03/04 04:03:51;;;;;;;7.57;2.17;;;4.70;99.90;;;;;;4993781;28;20431;-79
2023/03/04 04:06:17;;;;;;;12.82;2.75;;;4.70;99.90;;;;;;5008411;28;20034;-79
2023/03/04 04:08:43;;;;;;;8.95;1.90;;;4.70;99.90;;;;;;5014594;28;20053;-80
2023/03/04 04:11:09;;;;;;;11.02;2.00;;;4.70;99.90;;;;;;4991459;28;20041;-80
2023/03/04 04:13:35;;;;;;;14.40;3.40;;;4.70;99.90;;;;;;4968717;28;20036;-80
2023/03/04 04:16:01;;;;;;;12.23;2.72;;;4.90;99.90;;;;;;4975103;28;20038;-80
2023/03/04 04:18:26;;;;;;;8.73;2.00;;;4.70;99.90;;;;;;4991213;28;20068;-79
2023/03/04 04:20:53;;;;;;;9.43;2.42;;;4.70;99.90;;;;;;4990012;28;20053;-79
2023/03/04 04:23:19;;;;;;;5.80;2.22;;;4.70;99.90;;;;;;4999253;28;20038;-79
2023/03/04 04:25:45;;;;;;;6.15;2.13;;;4.70;99.90;;;;;;4996225;28;20045;-79
2023/03/04 04:28:10;;;;;;;14.15;3.05;;;4.70;99.90;;;;;;4983658;28;20121;-79
2023/03/04 04:30:37;;;;;;;12.68;2.80;;;4.70;99.90;;;;;;4989211;28;20122;-79
2023/03/04 04:33:03;;;;;;;12.60;2.47;;;4.70;99.90;;;;;;4987569;28;20566;-79
2023/03/04 04:35:34;;;;;;;15.48;2.63;;;4.70;99.90;;;;;;4988012;28;20030;-79
2023/03/04 04:37:59;;;;;;;7.43;1.98;;;4.70;99.90;;;;;;5001972;28;20492;-79
2023/03/04 04:40:25;;;;;;;8.73;2.17;;;4.70;99.90;;;;;;4985527;28;20041;-79
2023/03/04 04:42:51;;;;;;;7.97;2.40;;;4.70;99.90;;;;;;4973061;28;20961;-79
2023/03/04 04:45:17;;;;;;;9.98;2.45;;;4.70;99.90;;;;;;4975059;28;20030;-79
2023/03/04 04:47:43;;;;;;;13.10;2.42;;;4.70;99.90;;;;;;4986328;28;20070;-79
2023/03/04 04:50:09;;;;;;;14.40;2.67;;;4.70;99.90;;;;;;5004297;28;20042;-79
2023/03/04 04:52:35;;;;;;;9.55;2.10;;;4.60;99.90;;;;;;4971439;28;20046;-80
2023/03/04 04:55:01;;;;;;;12.60;2.30;;;4.60;99.90;;;;;;5017188;28;20045;-79
2023/03/04 04:57:26;;;;;;;7.13;1.92;;;4.60;99.90;;;;;;4992388;28;20533;-79
2023/03/04 04:59:53;;;;;;;7.95;2.40;;;4.60;99.90;;;;;;4993082;28;20088;-79
2023/03/04 05:02:18;;;;;;;7.95;2.08;;;4.60;99.90;;;;;;4975905;28;20053;-80
2023/03/04 05:04:44;;;;;;;8.55;2.28;;;4.60;99.90;;;;;;4971657;28;20057;-80
2023/03/04 05:07:10;;;;;;;8.57;2.35;;;4.60;99.90;;;;;;4963871;28;20049;-80
2023/03/04 05:09:35;;;;;;;6.90;2.15;;;4.60;99.90;;;;;;4990428;28;20042;-80
2023/03/04 05:12:01;;;;;;;6.80;2.13;;;4.60;99.90;;;;;;4994734;28;20659;-80
2023/03/04 05:14:27;;;;;;;8.05;1.85;;;4.60;99.90;;;;;;4988204;28;20030;-80
2023/03/04 05:16:53;;;;;;;7.50;1.90;;;4.70;99.90;;;;;;4986338;28;20454;-80
2023/03/04 05:19:20;;;;;;;12.35;2.47;;;4.60;99.90;;;;;;4991687;28;20040;-80
2023/03/04 05:21:45;;;;;;;10.90;2.33;;;4.60;99.90;;;;;;4992481;28;20034;-80
2023/03/04 05:24:11;;;;;;;12.00;2.22;;;4.60;99.90;;;;;;4976180;28;20095;-79
2023/03/04 05:26:37;;;;;;;7.05;2.83;;;4.60;99.90;;;;;;5003680;28;20034;-80
2023/03/04 05:29:03;;;;;;;8.68;2.13;;;4.60;99.90;;;;;;4983687;28;20103;-80
2023/03/04 05:31:29;;;;;;;18.33;3.65;;;5.00;99.90;;;;;;5000791;28;20436;-80
2023/03/04 05:33:55;;;;;;;8.05;2.45;;;4.50;99.90;;;;;;5022465;28;20060;-80
2023/03/04 05:36:21;;;;;;;8.23;2.25;;;4.50;99.90;;;;;;4991412;28;20572;-80
2023/03/04 05:38:47;;;;;;;7.82;1.88;;;4.50;99.90;;;;;;5018791;28;20517;-80
2023/03/04 05:41:13;;;;;;;11.60;2.30;;;4.50;99.90;;;;;;4975404;28;20034;-80
2023/03/04 05:43:41;;;;;;;9.88;2.00;;;4.50;99.90;;;;;;4991037;28;20046;-81
2023/03/04 05:46:10;;;;;;;9.05;2.63;;;4.40;99.90;;;;;;5006508;28;20077;-80
2023/03/04 05:48:36;;;;;;;16.50;2.35;;;4.40;99.90;;;;;;5016501;28;20065;-80
2023/03/04 05:51:01;;;;;;;9.80;2.60;;;4.40;99.90;;;;;;4993036;28;20065;-80
2023/03/04 05:53:28;;;;;;;8.93;2.28;;;4.30;99.90;;;;;;4989752;28;20052;-80
2023/03/04 05:55:53;;;;;;;8.63;2.17;;;4.30;99.90;;;;;;4990508;28;20060;-80
2023/03/04 05:58:20;;;;;;;6.95;2.20;;;4.30;99.90;;;;;;4992064;28;20507;-80
2023/03/04 06:00:46;;;;;;;19.42;3.70;;;4.30;99.90;;;;;;5004056;28;20056;-80
2023/03/04 06:03:22;;;;;;;8.93;2.25;;;4.30;99.90;;;;;;4989593;28;20353;-80
2023/03/04 06:05:48;;;;;;;12.27;2.42;;;4.40;99.90;;;;;;5004395;28;20073;-80
2023/03/04 06:08:14;;;;;;;8.38;2.83;;;4.30;99.90;;;;;;4989833;28;20103;-80
2023/03/04 06:10:40;;;;;;;8.90;2.42;;;4.30;99.90;;;;;;4990441;28;20077;-80
2023/03/04 06:13:07;;;;;;;9.65;2.78;;;4.30;99.90;;;;;;5007557;28;20045;-80
2023/03/04 06:15:33;;;;;;;12.63;2.67;;;4.20;99.90;;;;;;5019362;28;20042;-80
2023/03/04 06:17:58;;;;;;;14.75;2.60;;;4.20;99.90;;;;;;4991964;28;20042;-79
2023/03/04 06:20:24;;;;;;;12.15;3.25;;;4.30;99.90;;;;;;4990886;28;20041;-79
2023/03/04 06:22:50;;;;;;;9.80;2.17;;;4.20;99.90;;;;;;4989204;28;20088;-79
2023/03/04 06:25:16;;;;;;;7.88;2.53;;;4.20;99.90;;;;;;5004644;28;20052;-79
2023/03/04 06:27:41;;;;;;;7.95;2.50;;;4.20;99.90;;;;;;4990857;28;20103;-79
2023/03/04 06:30:08;;;;;;;12.32;3.08;;;4.50;99.90;;;;;;4986444;28;20128;-79
2023/03/04 06:32:33;;;;;;;13.63;3.00;;;4.20;99.90;;;;;;4990297;28;20033;-79
2023/03/04 06:34:59;;;;;;;20.48;3.10;;;4.40;99.90;;;;;;5005597;28;20038;-79
2023/03/04 06:37:25;;;;;;;7.78;3.03;;;4.40;99.90;;;;;;4989737;28;20036;-79
2023/03/04 06:39:50;;;;;;;9.82;3.45;;;4.20;99.90;;;;;;4986068;28;20090;-79
2023/03/04 06:42:16;;;;;;;10.70;3.78;;;4.20;99.90;;;;;;4989083;28;20760;-79
2023/03/04 06:44:42;;;;;;;12.55;2.92;;;4.30;99.90;;;;;;4972907;28;20487;-79
2023/03/04 06:47:07;;;;;;;12.63;2.88;;;4.30;99.90;;;;;;5002919;28;20551;-79
2023/03/04 06:49:33;;;;;;;9.05;2.90;;;4.30;99.90;;;;;;4988888;28;20668;-79
2023/03/04 06:51:59;;;;;;;13.60;2.80;;;4.30;99.90;;;;;;4988052;28;20303;-79
2023/03/04 06:54:25;;;;;;;10.65;2.75;;;4.30;99.90;;;;;;5014571;28;20068;-78
2023/03/04 06:56:51;;;;;;;11.77;2.90;;;4.40;99.90;;;;;;4972674;28;20144;-79
2023/03/04 06:59:16;;;;;;;10.02;3.40;;;4.40;99.90;;;;;;4990624;28;20041;-79
2023/03/04 07:01:42;;;;;;;17.20;4.32;;;4.40;99.90;;;;;;5000424;28;20044;-78
2023/03/04 07:04:08;;;;;;;9.25;3.80;;;4.50;99.90;;;;;;4987602;28;20045;-78
2023/03/04 07:06:34;;;;;;;7.63;2.85;;;4.50;99.90;;;;;;4988213;28;20136;-79
2023/03/04 07:08:59;;;;;;;10.60;3.05;;;4.50;99.90;;;;;;5004649;28;20044;-78
2023/03/04 07:11:26;;;;;;;16.80;8.07;;;4.50;99.90;;;;;;4999140;28;20507;-79
2023/03/04 07:13:51;;;;;;;15.18;5.47;;;4.50;99.90;;;;;;4987253;28;20040;-79
2023/03/04 07:16:20;;;;;;;9.63;4.32;;;4.60;99.90;;;;;;4984789;28;20037;-79
2023/03/04 07:18:46;;;;;;;12.63;4.97;;;4.60;99.90;;;;;;4999178;28;20034;-79
2023/03/04 07:21:13;;;;;;;12.95;3.70;;;4.60;99.90;;;;;;4971680;28;20197;-79
2023/03/04 07:23:40;;;;;;;18.33;4.70;;;4.60;99.90;;;;;;5019081;28;20049;-78
2023/03/04 07:26:05;;;;;;;12.25;2.75;;;4.60;99.90;;;;;;5007979;28;20053;-79
2023/03/04 07:28:31;;;;;;;9.13;2.67;;;4.60;99.90;;;;;;5007637;28;20141;-79
2023/03/04 07:31:10;;;;;;;8.93;2.30;;;4.70;99.90;;;;;;5006199;28;20048;-78
2023/03/04 07:33:36;;;;;;;8.55;2.20;;;4.70;99.90;;;;;;5007220;28;20117;-79
2023/03/04 07:36:02;;;;;;;10.70;2.20;;;4.70;99.90;;;;;;4973692;28;20515;-79
2023/03/04 07:38:28;;;;;;;10.05;1.95;;;4.80;99.90;;;;;;5001433;28;20038;-79
2023/03/04 07:40:57;;;;;;;12.65;2.50;;;4.90;99.90;;;;;;5002698;28;20057;-79
2023/03/04 07:43:23;;;;;;;4.47;2.17;;;4.90;99.90;;;;;;5006519;28;20494;-79
2023/03/04 07:45:49;;;;;;;14.52;2.58;;;5.00;99.90;;;;;;5018392;28;20072;-79
2023/03/04 07:48:15;;;;;;;4.88;1.92;;;5.10;99.90;;;;;;5002050;28;20046;-79
2023/03/04 07:50:41;;;;;;;5.88;2.38;;;5.10;99.90;;;;;;4986030;28;20060;-78
2023/03/04 07:53:06;;;;;;;5.28;2.40;;;5.20;99.90;;;;;;4987043;28;20412;-79
2023/03/04 07:55:33;;;;;;;8.25;2.08;;;5.20;99.90;;;;;;5004825;28;20053;-79
2023/03/04 07:57:58;;;;;;;6.55;1.90;;;5.20;99.90;;;;;;4991717;28;20407;-79
2023/03/04 08:00:24;;;;;;;7.80;2.38;;;5.30;99.90;;;;;;5005933;28;20042;-81
2023/03/04 08:02:50;;;;;;;5.85;1.90;;;5.30;99.90;;;;;;4975119;28;20041;-82
2023/03/04 08:05:15;;;;;;;6.25;2.00;;;5.50;99.90;;;;;;5010555;28;20069;-81
2023/03/04 08:07:41;;;;;;;6.40;1.83;;;5.50;99.90;;;;;;4985411;28;20045;-82
2023/03/04 08:10:07;;;;;;;5.45;1.92;;;5.50;99.90;;;;;;4971426;28;20037;-81
2023/03/04 08:12:34;;;;;;;8.07;2.22;;;5.50;99.90;;;;;;5002937;28;20052;-82
2023/03/04 08:15:00;;;;;;;7.05;2.28;;;5.50;99.90;;;;;;5004854;28;20038;-81
2023/03/04 08:17:28;;;;;;;7.22;1.90;;;5.20;99.90;;;;;;4987732;28;20040;-82
2023/03/04 08:19:54;;;;;;;6.78;1.98;;;5.50;99.90;;;;;;4980876;28;20501;-82
2023/03/04 08:22:20;;;;;;;7.63;1.80;;;5.50;99.90;;;;;;4996269;28;20462;-82
2023/03/04 08:24:46;;;;;;;9.13;1.80;;;5.50;99.90;;;;;;4980158;28;20037;-82
2023/03/04 08:27:11;;;;;;;5.47;2.10;;;5.50;99.90;;;;;;5020718;28;20030;-82
2023/03/04 08:29:37;;;;;;;8.23;2.28;;;5.40;99.90;;;;;;4976195;28;20120;-82
2023/03/04 08:32:03;;;;;;;10.13;2.05;;;5.40;99.90;;;;;;5007242;28;20038;-81
2023/03/04 08:34:30;;;;;;;9.10;2.17;;;5.40;99.90;;;;;;5009437;28;20077;-81
2023/03/04 08:36:56;;;;;;;11.82;2.85;;;5.30;99.90;;;;;;4990031;28;20046;-81
2023/03/04 08:39:21;;;;;;;19.77;2.97;;;5.30;99.90;;;;;;4985597;28;20092;-78
2023/03/04 08:41:48;;;;;;;15.90;3.00;;;5.30;99.90;;;;;;4974731;28;20105;-82
2023/03/04 08:44:14;;;;;;;16.27;3.08;;;5.40;99.90;;;;;;5002768;28;20080;-82
2023/03/04 08:46:42;;;;;;;20.20;3.63;;;5.30;99.90;;;;;;4960617;28;20074;-81
2023/03/04 08:49:09;;;;;;;9.60;2.45;;;5.30;99.90;;;;;;4980983;28;20045;-82
2023/03/04 08:51:35;;;;;;;12.13;3.25;;;5.30;99.90;;;;;;4987788;28;20077;-82
2023/03/04 08:54:02;;;;;;;13.55;3.15;;;5.30;99.90;;;;;;4959771;28;20474;-81
2023/03/04 08:56:28;;;;;;;14.88;2.97;;;5.30;99.90;;;;;;4987095;28;20046;-81
2023/03/04 08:58:54;;;;;;;12.90;2.90;;;5.20;99.90;;;;;;5004046;28;20060;-81
2023/03/04 09:01:19;;;;;;;18.48;3.58;;;5.60;99.90;;;;;;4968867;28;20034;-81
2023/03/04 09:03:45;;;;;;;23.23;3.80;;;5.30;99.90;;;;;;5002398;28;20544;-80
2023/03/04 09:06:14;;;;;;;12.75;3.00;;;5.20;99.90;;;;;;4987138;28;20050;-80
2023/03/04 09:08:40;;;;;;;15.88;3.00;;;5.30;99.90;;;;;;5004346;28;20643;-81
2023/03/04 09:11:05;;;;;;;11.02;2.50;;;5.20;99.90;;;;;;5000860;28;20048;-80
2023/03/04 09:13:32;;;;;;;16.95;2.42;;;5.20;99.90;;;;;;5004538;28;20093;-81
2023/03/04 09:15:58;;;;;;;14.20;3.25;;;5.30;99.90;;;;;;5000558;28;20048;-82
2023/03/04 09:18:25;;;;;;;19.05;3.22;;;5.40;99.90;;;;;;4998651;28;20031;-80
2023/03/04 09:20:51;;;;;;;11.05;3.05;;;5.50;99.90;;;;;;4996935;28;20072;-82
2023/03/04 09:23:17;;;;;;;19.75;3.53;;;5.70;99.90;;;;;;5013020;28;20052;-82
2023/03/04 09:25:45;;;;;;;20.73;3.88;;;5.80;99.90;;;;;;4984377;28;20493;-88
2023/03/04 09:28:11;;;;;;;15.57;4.00;;;5.80;99.90;;;;;;5000543;28;20037;-81
2023/03/04 09:30:37;;;;;;;16.15;3.63;;;5.90;99.90;;;;;;5000972;28;20031;-80
2023/03/04 09:33:03;;;;;;;16.92;3.15;;;6.00;99.90;;;;;;5020581;28;20037;-81
2023/03/04 09:35:29;;;;;;;25.38;4.15;;;6.20;99.90;;;;;;5007550;28;20030;-81
2023/03/04 09:37:55;;;;;;;10.90;3.10;;;6.30;99.90;;;;;;4986234;28;20044;-83
2023/03/04 09:40:25;;;;;;;13.57;4.15;;;6.40;99.90;;;;;;4971107;28;20060;-82
2023/03/04 09:42:56;;;;;;;15.80;3.47;;;6.40;99.90;;;;;;5003563;28;20518;-83
2023/03/04 09:45:27;;;;;;;17.25;3.92;;;6.40;99.90;;;;;;5004307;28;20045;-83
2023/03/04 09:47:54;;;;;;;26.08;4.13;;;6.40;99.90;;;;;;5000277;28;20479;-83
2023/03/04 09:50:21;;;;;;;22.33;3.78;;;6.50;99.90;;;;;;4989570;28;20050;-82
2023/03/04 09:53:13;;;;;;;19.52;3.55;;;6.50;99.90;;;;;;4986941;28;20448;-82
2023/03/04 09:55:45;;;;;;;20.13;2.92;;;6.70;99.90;;;;;;4991504;28;20038;-81
2023/03/04 09:58:30;;;;;;;17.67;3.03;;;6.70;99.90;;;;;;4990167;28;20038;-81
2023/03/04 10:01:09;;;;;;;12.30;2.90;;;6.70;99.90;;;;;;5003289;28;20046;-82
2023/03/04 10:03:38;;;;;;;20.52;3.50;;;6.70;99.90;;;;;;5004175;28;20041;-83
2023/03/04 10:06:10;;;;;;;18.23;3.50;;;6.80;99.90;;;;;;5004784;28;20419;-84
2023/03/04 10:08:54;;;;;;;16.45;2.92;;;6.80;99.90;;;;;;5020985;28;20581;-83
2023/03/04 10:11:35;;;;;;;12.30;2.75;;;6.70;99.90;;;;;;4988073;28;20670;-82
2023/03/04 10:14:22;;;;;;;27.80;4.05;;;6.70;99.90;;;;;;5005614;28;20031;-84
2023/03/04 10:16:56;;;;;;;13.77;3.30;;;6.60;99.90;;;;;;4984501;28;20068;-83
2023/03/04 10:19:55;;;;;;;14.48;2.88;;;6.70;99.90;;;;;;4988909;28;20038;-81
2023/03/04 10:22:20;;;;;;;8.30;2.20;;;6.70;99.90;;;;;;5000893;28;20045;-90
2023/03/04 10:24:47;;;;;;;15.90;3.50;;;6.60;99.90;;;;;;5007531;28;20033;-79
2023/03/04 10:27:16;;;;;;;9.95;2.38;;;6.50;99.90;;;;;;4998620;28;20402;-81
2023/03/04 10:29:43;;;;;;;9.57;1.73;;;6.50;99.90;;;;;;5000200;28;20130;-90
2023/03/04 10:32:15;;;;;;;10.30;2.15;;;6.20;99.90;;;;;;4994949;28;20085;-80
2023/03/04 10:34:40;;;;;;;7.35;1.70;;;6.10;99.90;;;;;;4989697;28;20034;-80
2023/03/04 10:37:08;;;;;;;8.43;1.90;;;5.90;99.90;;;;;;4989386;28;20033;-80
2023/03/04 10:39:54;;;;;;;6.68;1.80;;;5.80;99.90;;;;;;4986868;28;20038;-81
2023/03/04 10:42:28;;;;;;;7.95;1.65;;;5.90;99.90;;;;;;5001878;28;20042;-82
2023/03/04 10:44:59;;;;;;;9.60;2.30;;;5.90;99.90;;;;;;5007678;28;20038;-83
2023/03/04 10:47:28;;;;;;;5.00;1.30;;;6.20;99.90;;;;;;5001527;28;20030;-83
2023/03/04 10:49:59;;;;;;;9.63;2.33;;;6.60;99.90;;;;;;4997367;28;20041;-85
2023/03/04 10:52:39;;;;;;;7.47;2.30;;;6.80;99.90;;;;;;5008580;28;20042;-83
2023/03/04 10:55:16;;;;;;;4.60;1.30;;;7.20;99.90;;;;;;5013140;28;20049;-81
2023/03/04 10:57:47;;;;;;;6.95;1.73;;;8.40;99.90;;;;;;5009602;28;20168;-80
2023/03/04 11:00:32;;;;;;;5.20;1.73;;;9.50;99.90;;;;;;5009720;28;20556;-79
2023/03/04 11:03:23;;;;;;;10.35;2.55;;;9.40;99.90;;;;;;4991790;28;20056;-80
2023/03/04 11:05:49;;;;;;;6.13;1.50;;;8.50;99.90;;;;;;5000182;28;20132;-79
2023/03/04 11:08:24;;;;;;;10.98;1.73;;;8.00;99.90;;;;;;5008763;28;20038;-80
2023/03/04 11:10:51;;;;;;;9.85;2.40;;;7.50;99.90;;;;;;4993975;28;20044;-80
2023/03/04 11:13:20;;;;;;;12.93;2.65;;;7.00;99.90;;;;;;5009239;28;20045;-80
2023/03/04 11:16:01;;;;;;;13.02;2.72;;;6.60;99.90;;;;;;4989662;28;20447;-80
2023/03/04 11:18:29;;;;;;;8.23;2.67;;;6.70;99.90;;;;;;5007320;28;20061;-80
2023/03/04 11:20:56;;;;;;;16.52;3.08;;;6.10;99.90;;;;;;4986916;28;20045;-79
2023/03/04 11:23:34;;;;;;;8.93;3.55;;;6.10;99.90;;;;;;5006300;28;20096;-79
2023/03/04 11:26:10;;;;;;;12.88;2.90;;;6.20;99.90;;;;;;4993631;28;20586;-79
2023/03/04 11:28:50;;;;;;;15.25;3.28;;;6.10;99.90;;;;;;4993353;28;20033;-80
2023/03/04 11:31:22;;;;;;;12.98;3.80;;;6.30;99.90;;;;;;4992019;28;20089;-79
2023/03/04 11:34:23;;;;;;;17.50;4.28;;;6.50;99.90;;;;;;5008525;28;20152;-80
2023/03/04 11:37:10;;;;;;;10.73;2.72;;;6.80;99.90;;;;;;4994506;28;20081;-80
2023/03/04 11:39:39;;;;;;;13.57;2.92;;;6.90;99.90;;;;;;4993581;28;20061;-80
2023/03/04 11:42:23;;;;;;;9.75;2.42;;;7.10;99.90;;;;;;4982913;28;20042;-80
2023/03/04 11:44:50;;;;;;;8.35;2.25;;;7.10;99.90;;;;;;4986700;28;20033;-80
2023/03/04 11:47:58;;;;;;;13.60;2.78;;;6.90;99.90;;;;;;4993630;28;20045;-80
2023/03/04 11:50:30;;;;;;;11.23;2.50;;;7.00;99.90;;;;;;5004007;28;20049;-80
2023/03/04 11:53:28;;;;;;;11.43;2.70;;;6.80;99.90;;;;;;4990141;28;20393;-80
2023/03/04 11:55:56;;;;;;;18.48;2.78;;;7.00;99.90;;;;;;4991396;28;20794;-80
2023/03/04 11:58:37;;;;;;;13.02;3.00;;;7.00;99.90;;;;;;5014450;28;20125;-80
2023/03/04 12:01:08;;;;;;;12.05;2.80;;;7.00;99.90;;;;;;5005995;28;20046;-79
2023/03/04 12:04:11;;;;;;;14.57;4.05;;;7.30;99.90;;;;;;4991509;28;20037;-80
2023/03/04 12:07:18;;;;;;;11.93;2.67;;;7.70;99.90;;;;;;4989624;28;20041;-80
2023/03/04 12:10:19;;;;;;;15.43;2.15;;;8.00;99.90;;;;;;4987473;28;20050;-80
2023/03/04 12:13:22;;;;;;;12.13;2.65;;;7.90;99.90;;;;;;5024226;28;20045;-80
2023/03/04 12:16:18;;;;;;;14.50;2.47;;;7.70;99.90;;;;;;5028683;28;20030;-80
2023/03/04 12:18:56;;;;;;;20.40;3.33;;;7.60;99.90;;;;;;4989520;28;20038;-80
2023/03/04 12:21:32;;;;;;;10.60;2.55;;;7.50;99.90;;;;;;4997991;28;20045;-80
2023/03/04 12:24:34;;;;;;;10.63;2.40;;;7.60;99.90;;;;;;5003044;28;20060;-80
2023/03/04 12:27:20;;;;;;;11.57;2.53;;;7.80;99.90;;;;;;4981626;28;20104;-80
2023/03/04 12:30:04;;;;;;;8.55;2.38;;;7.90;99.90;;;;;;5000426;28;20562;-80
2023/03/04 12:32:53;;;;;;;12.85;2.35;;;8.40;99.90;;;;;;4986508;28;20038;-81
2023/03/04 12:35:32;;;;;;;12.55;2.22;;;8.50;99.90;;;;;;4992769;28;20056;-81
2023/03/04 12:38:32;;;;;;;16.15;2.67;;;8.50;99.90;;;;;;4995103;28;20030;-83
2023/03/04 12:41:15;;;;;;;12.77;2.75;;;8.40;99.90;;;;;;4987717;28;20185;-82
2023/03/04 12:43:52;;;;;;;14.18;2.53;;;8.10;99.90;;;;;;5008129;28;20439;-80
2023/03/04 12:46:41;;;;;;;10.93;2.67;;;7.80;99.90;;;;;;4995069;28;20107;-85
2023/03/04 12:49:17;;;;;;;9.27;2.25;;;7.60;99.90;;;;;;4988381;28;20038;-85
2023/03/04 12:52:35;;;;;;;8.25;2.53;;;7.60;99.90;;;;;;4992297;28;20046;-86
2023/03/04 12:55:07;;;;;;;8.05;1.88;;;7.70;99.90;;;;;;4983351;28;20144;-85
2023/03/04 12:57:33;;;;;;;8.25;2.30;;;7.50;99.90;;;;;;4988663;28;20037;-86
2023/03/04 13:00:23;;;;;;;5.75;2.15;;;7.60;99.90;;;;;;4991189;28;20587;-85
2023/03/04 13:03:07;;;;;;;8.35;2.20;;;7.80;99.90;;;;;;5005472;28;20046;-86